Terminal Aerodrome Forecast
Issued by NWS

Current Version | Previous Version | Text Only | Print | Product List | Glossary Off
Versions: 1 2 3 4 5 6 7 8 9 10 11 12 13 14 15 16 17 18 19 20 21 22 23 24 25 26 27 28

000
FTUS41 KPBZ 291737
TAFMGW
TAF
KMGW 291737Z 2918/3018 20003KT P6SM BKN035
     FM292300 00000KT P6SM OVC250
     FM300600 15002KT 6SM BR BKN100
     FM300700 15002KT 4SM BR OVC050
     FM300900 15002KT 1 1/2SM BR OVC001
     FM301400 18003KT 4SM HZ BR OVC015
     FM301600 21004KT 6SM HZ OVC050=

USA.gov is the U.S. government's official web portal to all federal, state and local government web resources and services.